sensor_id;sensor_type;location;lat;lon;timestamp;temperature;humidity
70244;DHT22;57634;51.136;17.024;2023-04-06T00:01:42;2.30;76.60
70244;DHT22;57634;51.136;17.024;2023-04-06T00:04:44;2.30;76.60
70244;DHT22;57634;51.136;17.024;2023-04-06T00:07:45;2.20;76.70
70244;DHT22;57634;51.136;17.024;2023-04-06T00:10:46;2.20;76.90
70244;DHT22;57634;51.136;17.024;2023-04-06T00:13:47;2.20;77.00
70244;DHT22;57634;51.136;17.024;2023-04-06T00:16:48;2.20;77.00
70244;DHT22;57634;51.136;17.024;2023-04-06T00:19:50;2.20;77.10
70244;DHT22;57634;51.136;17.024;2023-04-06T00:22:51;2.20;77.20
70244;DHT22;57634;51.136;17.024;2023-04-06T00:26:21;2.10;77.30
70244;DHT22;57634;51.136;17.024;2023-04-06T00:29:23;2.10;77.40
70244;DHT22;57634;51.136;17.024;2023-04-06T00:32:24;2.10;77.40
70244;DHT22;57634;51.136;17.024;2023-04-06T00:35:26;2.10;77.30
70244;DHT22;57634;51.136;17.024;2023-04-06T00:38:27;2.00;77.20
70244;DHT22;57634;51.136;17.024;2023-04-06T00:41:28;1.90;77.60
70244;DHT22;57634;51.136;17.024;2023-04-06T00:44:29;1.80;77.90
70244;DHT22;57634;51.136;17.024;2023-04-06T00:47:33;1.70;78.30
70244;DHT22;57634;51.136;17.024;2023-04-06T00:50:34;1.60;78.60
70244;DHT22;57634;51.136;17.024;2023-04-06T00:56:22;1.50;79.00
70244;DHT22;57634;51.136;17.024;2023-04-06T00:59:25;1.50;79.30
70244;DHT22;57634;51.136;17.024;2023-04-06T01:02:27;1.50;79.50
70244;DHT22;57634;51.136;17.024;2023-04-06T01:05:29;1.40;79.50
70244;DHT22;57634;51.136;17.024;2023-04-06T01:08:31;1.40;79.60
70244;DHT22;57634;51.136;17.024;2023-04-06T01:11:32;1.40;79.80
70244;DHT22;57634;51.136;17.024;2023-04-06T01:14:33;1.40;79.90
70244;DHT22;57634;51.136;17.024;2023-04-06T01:17:35;1.30;79.90
70244;DHT22;57634;51.136;17.024;2023-04-06T01:20:37;1.30;80.00
70244;DHT22;57634;51.136;17.024;2023-04-06T01:23:38;1.30;80.10
70244;DHT22;57634;51.136;17.024;2023-04-06T01:26:40;1.30;80.20
70244;DHT22;57634;51.136;17.024;2023-04-06T01:29:42;1.20;80.30
70244;DHT22;57634;51.136;17.024;2023-04-06T01:32:43;1.20;80.40
70244;DHT22;57634;51.136;17.024;2023-04-06T01:36:13;1.20;80.40
70244;DHT22;57634;51.136;17.024;2023-04-06T01:39:14;1.20;80.60
70244;DHT22;57634;51.136;17.024;2023-04-06T01:42:16;1.20;80.70
70244;DHT22;57634;51.136;17.024;2023-04-06T01:45:17;1.20;80.70
70244;DHT22;57634;51.136;17.024;2023-04-06T01:48:19;1.30;80.70
70244;DHT22;57634;51.136;17.024;2023-04-06T01:51:20;1.30;80.60
70244;DHT22;57634;51.136;17.024;2023-04-06T01:54:21;1.30;80.40
70244;DHT22;57634;51.136;17.024;2023-04-06T01:57:23;1.30;80.40
70244;DHT22;57634;51.136;17.024;2023-04-06T02:00:24;1.30;80.40
70244;DHT22;57634;51.136;17.024;2023-04-06T02:03:26;1.30;80.40
70244;DHT22;57634;51.136;17.024;2023-04-06T02:06:27;1.30;80.50
70244;DHT22;57634;51.136;17.024;2023-04-06T02:09:28;1.30;80.60
70244;DHT22;57634;51.136;17.024;2023-04-06T02:12:29;1.30;80.60
70244;DHT22;57634;51.136;17.024;2023-04-06T02:15:30;1.30;80.50
70244;DHT22;57634;51.136;17.024;2023-04-06T02:18:31;1.30;80.50
70244;DHT22;57634;51.136;17.024;2023-04-06T02:22:00;1.30;80.50
70244;DHT22;57634;51.136;17.024;2023-04-06T02:25:03;1.30;80.40
70244;DHT22;57634;51.136;17.024;2023-04-06T02:28:04;1.30;80.40
70244;DHT22;57634;51.136;17.024;2023-04-06T02:31:07;1.20;80.40
70244;DHT22;57634;51.136;17.024;2023-04-06T02:34:08;1.20;80.50
70244;DHT22;57634;51.136;17.024;2023-04-06T02:37:17;1.20;80.60
70244;DHT22;57634;51.136;17.024;2023-04-06T02:40:19;1.20;80.50
70244;DHT22;57634;51.136;17.024;2023-04-06T02:43:20;1.10;80.50
70244;DHT22;57634;51.136;17.024;2023-04-06T02:46:22;1.10;80.50
70244;DHT22;57634;51.136;17.024;2023-04-06T02:49:23;1.00;80.70
70244;DHT22;57634;51.136;17.024;2023-04-06T02:52:24;0.90;80.70
70244;DHT22;57634;51.136;17.024;2023-04-06T02:55:26;0.90;81.00
70244;DHT22;57634;51.136;17.024;2023-04-06T02:58:27;0.80;81.10
70244;DHT22;57634;51.136;17.024;2023-04-06T03:01:54;0.70;81.10
70244;DHT22;57634;51.136;17.024;2023-04-06T03:04:56;0.70;81.20
70244;DHT22;57634;51.136;17.024;2023-04-06T03:07:57;0.70;81.40
70244;DHT22;57634;51.136;17.024;2023-04-06T03:10:58;0.60;81.60
70244;DHT22;57634;51.136;17.024;2023-04-06T03:13:59;0.60;81.70
70244;DHT22;57634;51.136;17.024;2023-04-06T03:17:00;0.50;81.80
70244;DHT22;57634;51.136;17.024;2023-04-06T03:20:03;0.60;81.90
70244;DHT22;57634;51.136;17.024;2023-04-06T03:23:05;0.50;81.90
70244;DHT22;57634;51.136;17.024;2023-04-06T03:26:07;0.50;82.00
70244;DHT22;57634;51.136;17.024;2023-04-06T03:29:08;0.50;82.10
70244;DHT22;57634;51.136;17.024;2023-04-06T03:32:10;0.50;82.10
70244;DHT22;57634;51.136;17.024;2023-04-06T03:35:11;0.40;82.10
70244;DHT22;57634;51.136;17.024;2023-04-06T03:38:12;0.40;82.20
70244;DHT22;57634;51.136;17.024;2023-04-06T03:41:13;0.40;82.20
70244;DHT22;57634;51.136;17.024;2023-04-06T03:44:15;0.50;82.30
70244;DHT22;57634;51.136;17.024;2023-04-06T03:47:43;0.40;82.10
70244;DHT22;57634;51.136;17.024;2023-04-06T03:50:44;0.40;82.10
70244;DHT22;57634;51.136;17.024;2023-04-06T03:53:45;0.40;82.10
70244;DHT22;57634;51.136;17.024;2023-04-06T03:56:47;0.40;82.10
70244;DHT22;57634;51.136;17.024;2023-04-06T03:59:49;0.40;82.20
70244;DHT22;57634;51.136;17.024;2023-04-06T04:02:50;0.50;82.20
70244;DHT22;57634;51.136;17.024;2023-04-06T04:05:51;0.50;82.10
70244;DHT22;57634;51.136;17.024;2023-04-06T04:08:52;0.50;82.00
70244;DHT22;57634;51.136;17.024;2023-04-06T04:11:54;0.50;81.90
70244;DHT22;57634;51.136;17.024;2023-04-06T04:14:56;0.60;81.90
70244;DHT22;57634;51.136;17.024;2023-04-06T04:17:57;0.60;81.80
70244;DHT22;57634;51.136;17.024;2023-04-06T04:20:58;0.60;81.70
70244;DHT22;57634;51.136;17.024;2023-04-06T04:23:59;0.60;81.70
70244;DHT22;57634;51.136;17.024;2023-04-06T04:27:02;0.60;81.70
70244;DHT22;57634;51.136;17.024;2023-04-06T04:30:06;0.60;81.70
70244;DHT22;57634;51.136;17.024;2023-04-06T04:33:33;0.60;81.80
70244;DHT22;57634;51.136;17.024;2023-04-06T04:36:35;0.70;81.80
70244;DHT22;57634;51.136;17.024;2023-04-06T04:39:36;0.70;81.80
70244;DHT22;57634;51.136;17.024;2023-04-06T04:42:37;0.80;81.80
70244;DHT22;57634;51.136;17.024;2023-04-06T04:45:38;0.90;81.80
70244;DHT22;57634;51.136;17.024;2023-04-06T04:48:39;1.10;82.10
70244;DHT22;57634;51.136;17.024;2023-04-06T04:51:41;1.40;82.80
70244;DHT22;57634;51.136;17.024;2023-04-06T04:54:42;1.80;83.10
70244;DHT22;57634;51.136;17.024;2023-04-06T04:57:44;2.40;83.10
70244;DHT22;57634;51.136;17.024;2023-04-06T05:00:46;3.10;82.80
70244;DHT22;57634;51.136;17.024;2023-04-06T05:03:47;3.90;81.60
70244;DHT22;57634;51.136;17.024;2023-04-06T05:06:48;4.70;79.70
70244;DHT22;57634;51.136;17.024;2023-04-06T05:09:50;5.40;77.60
70244;DHT22;57634;51.136;17.024;2023-04-06T05:12:51;6.20;75.90
70244;DHT22;57634;51.136;17.024;2023-04-06T05:15:53;7.00;73.90
70244;DHT22;57634;51.136;17.024;2023-04-06T05:19:21;7.80;71.40
70244;DHT22;57634;51.136;17.024;2023-04-06T05:22:23;8.60;69.00
70244;DHT22;57634;51.136;17.024;2023-04-06T05:25:25;9.40;66.50
70244;DHT22;57634;51.136;17.024;2023-04-06T05:28:26;10.10;63.80
70244;DHT22;57634;51.136;17.024;2023-04-06T05:31:28;10.60;61.30
70244;DHT22;57634;51.136;17.024;2023-04-06T05:34:30;11.10;59.30
70244;DHT22;57634;51.136;17.024;2023-04-06T05:37:31;11.50;56.60
70244;DHT22;57634;51.136;17.024;2023-04-06T05:40:32;11.80;54.60
70244;DHT22;57634;51.136;17.024;2023-04-06T05:43:35;11.90;53.40
70244;DHT22;57634;51.136;17.024;2023-04-06T05:46:36;12.00;52.60
70244;DHT22;57634;51.136;17.024;2023-04-06T05:49:38;12.10;51.90
70244;DHT22;57634;51.136;17.024;2023-04-06T05:52:39;12.40;51.20
70244;DHT22;57634;51.136;17.024;2023-04-06T05:55:47;12.60;50.60
70244;DHT22;57634;51.136;17.024;2023-04-06T05:59:14;12.90;49.80
70244;DHT22;57634;51.136;17.024;2023-04-06T06:02:16;13.40;48.70
70244;DHT22;57634;51.136;17.024;2023-04-06T06:05:17;13.80;47.70
70244;DHT22;57634;51.136;17.024;2023-04-06T06:08:18;14.20;46.40
70244;DHT22;57634;51.136;17.024;2023-04-06T06:11:20;14.70;45.50
70244;DHT22;57634;51.136;17.024;2023-04-06T06:14:21;15.40;44.60
70244;DHT22;57634;51.136;17.024;2023-04-06T06:17:22;16.10;43.00
70244;DHT22;57634;51.136;17.024;2023-04-06T06:20:24;16.90;41.70
70244;DHT22;57634;51.136;17.024;2023-04-06T06:23:26;17.60;40.60
70244;DHT22;57634;51.136;17.024;2023-04-06T06:26:27;18.40;39.20
70244;DHT22;57634;51.136;17.024;2023-04-06T06:29:29;19.00;38.00
70244;DHT22;57634;51.136;17.024;2023-04-06T06:32:31;19.70;37.20
70244;DHT22;57634;51.136;17.024;2023-04-06T06:35:33;20.30;36.20
70244;DHT22;57634;51.136;17.024;2023-04-06T06:38:34;20.90;35.20
70244;DHT22;57634;51.136;17.024;2023-04-06T06:41:35;21.40;34.50
70244;DHT22;57634;51.136;17.024;2023-04-06T06:45:02;22.00;33.70
70244;DHT22;57634;51.136;17.024;2023-04-06T06:48:04;22.50;31.80
70244;DHT22;57634;51.136;17.024;2023-04-06T06:51:05;22.90;30.90
70244;DHT22;57634;51.136;17.024;2023-04-06T06:54:06;23.20;30.10
70244;DHT22;57634;51.136;17.024;2023-04-06T06:57:07;23.60;29.70
70244;DHT22;57634;51.136;17.024;2023-04-06T07:00:09;24.10;29.30
70244;DHT22;57634;51.136;17.024;2023-04-06T07:03:13;24.30;28.90
70244;DHT22;57634;51.136;17.024;2023-04-06T07:06:15;24.60;28.60
70244;DHT22;57634;51.136;17.024;2023-04-06T07:09:16;24.70;28.30
70244;DHT22;57634;51.136;17.024;2023-04-06T07:12:17;24.70;28.10
70244;DHT22;57634;51.136;17.024;2023-04-06T07:15:18;24.70;28.10
70244;DHT22;57634;51.136;17.024;2023-04-06T07:18:20;24.70;28.00
70244;DHT22;57634;51.136;17.024;2023-04-06T07:21:23;24.40;28.10
70244;DHT22;57634;51.136;17.024;2023-04-06T07:24:24;24.40;28.20
70244;DHT22;57634;51.136;17.024;2023-04-06T07:27:51;24.40;28.20
70244;DHT22;57634;51.136;17.024;2023-04-06T07:30:53;24.30;27.60
70244;DHT22;57634;51.136;17.024;2023-04-06T07:33:55;24.10;27.40
70244;DHT22;57634;51.136;17.024;2023-04-06T07:36:56;23.90;27.30
70244;DHT22;57634;51.136;17.024;2023-04-06T07:39:58;23.40;27.40
70244;DHT22;57634;51.136;17.024;2023-04-06T07:42:59;23.10;27.40
70244;DHT22;57634;51.136;17.024;2023-04-06T07:46:00;22.70;27.40
70244;DHT22;57634;51.136;17.024;2023-04-06T07:49:02;22.30;27.70
70244;DHT22;57634;51.136;17.024;2023-04-06T07:52:04;22.10;27.40
70244;DHT22;57634;51.136;17.024;2023-04-06T07:55:06;21.80;27.30
70244;DHT22;57634;51.136;17.024;2023-04-06T07:58:07;21.60;27.20
70244;DHT22;57634;51.136;17.024;2023-04-06T08:01:09;21.30;27.40
70244;DHT22;57634;51.136;17.024;2023-04-06T08:04:11;21.20;27.30
70244;DHT22;57634;51.136;17.024;2023-04-06T08:07:12;20.90;27.20
70244;DHT22;57634;51.136;17.024;2023-04-06T08:10:40;20.90;27.60
70244;DHT22;57634;51.136;17.024;2023-04-06T08:13:41;21.00;27.00
70244;DHT22;57634;51.136;17.024;2023-04-06T08:16:42;21.00;27.00
70244;DHT22;57634;51.136;17.024;2023-04-06T08:19:44;20.80;26.90
70244;DHT22;57634;51.136;17.024;2023-04-06T08:22:46;20.70;27.10
70244;DHT22;57634;51.136;17.024;2023-04-06T08:25:47;20.60;27.00
70244;DHT22;57634;51.136;17.024;2023-04-06T08:28:49;20.50;27.30
70244;DHT22;57634;51.136;17.024;2023-04-06T08:31:50;20.60;27.40
70244;DHT22;57634;51.136;17.024;2023-04-06T08:34:54;20.80;27.00
70244;DHT22;57634;51.136;17.024;2023-04-06T08:37:56;21.00;26.70
70244;DHT22;57634;51.136;17.024;2023-04-06T08:40:58;21.10;26.40
70244;DHT22;57634;51.136;17.024;2023-04-06T08:44:00;21.20;26.10
70244;DHT22;57634;51.136;17.024;2023-04-06T08:47:04;21.20;26.00
70244;DHT22;57634;51.136;17.024;2023-04-06T08:50:32;21.20;25.60
70244;DHT22;57634;51.136;17.024;2023-04-06T08:53:34;20.80;25.20
70244;DHT22;57634;51.136;17.024;2023-04-06T08:56:38;20.10;25.60
70244;DHT22;57634;51.136;17.024;2023-04-06T08:59:40;19.90;25.90
70244;DHT22;57634;51.136;17.024;2023-04-06T09:02:43;19.90;26.20
70244;DHT22;57634;51.136;17.024;2023-04-06T09:05:46;20.30;26.20
70244;DHT22;57634;51.136;17.024;2023-04-06T09:08:48;20.80;26.10
70244;DHT22;57634;51.136;17.024;2023-04-06T09:11:50;21.40;25.90
70244;DHT22;57634;51.136;17.024;2023-04-06T09:14:52;21.90;25.60
70244;DHT22;57634;51.136;17.024;2023-04-06T09:17:54;22.40;25.00
70244;DHT22;57634;51.136;17.024;2023-04-06T09:21:01;22.40;24.40
70244;DHT22;57634;51.136;17.024;2023-04-06T09:27:42;21.20;24.80
70244;DHT22;57634;51.136;17.024;2023-04-06T09:30:48;20.90;25.10
70244;DHT22;57634;51.136;17.024;2023-04-06T09:33:53;20.40;25.40
70244;DHT22;57634;51.136;17.024;2023-04-06T09:36:55;20.10;25.80
70244;DHT22;57634;51.136;17.024;2023-04-06T09:40:02;19.80;25.70
70244;DHT22;57634;51.136;17.024;2023-04-06T09:43:03;19.20;25.90
70244;DHT22;57634;51.136;17.024;2023-04-06T09:46:07;18.30;26.00
70244;DHT22;57634;51.136;17.024;2023-04-06T09:49:35;17.00;26.70
70244;DHT22;57634;51.136;17.024;2023-04-06T09:52:48;16.00;28.00
70244;DHT22;57634;51.136;17.024;2023-04-06T09:55:55;15.70;28.70
70244;DHT22;57634;51.136;17.024;2023-04-06T09:59:02;15.50;28.90
70244;DHT22;57634;51.136;17.024;2023-04-06T10:02:08;15.20;29.10
70244;DHT22;57634;51.136;17.024;2023-04-06T10:08:52;14.60;29.40
70244;DHT22;57634;51.136;17.024;2023-04-06T10:11:58;14.30;29.90
70244;DHT22;57634;51.136;17.024;2023-04-06T10:14:59;14.30;30.20
70244;DHT22;57634;51.136;17.024;2023-04-06T10:18:02;14.20;30.40
70244;DHT22;57634;51.136;17.024;2023-04-06T10:21:08;14.20;30.30
70244;DHT22;57634;51.136;17.024;2023-04-06T10:24:10;14.10;30.60
70244;DHT22;57634;51.136;17.024;2023-04-06T10:27:14;14.10;31.10
70244;DHT22;57634;51.136;17.024;2023-04-06T10:30:15;14.20;31.20
70244;DHT22;57634;51.136;17.024;2023-04-06T10:33:19;14.40;31.20
70244;DHT22;57634;51.136;17.024;2023-04-06T10:36:26;14.60;30.80
70244;DHT22;57634;51.136;17.024;2023-04-06T10:39:53;14.70;30.60
70244;DHT22;57634;51.136;17.024;2023-04-06T10:46:13;14.70;30.10
70244;DHT22;57634;51.136;17.024;2023-04-06T10:49:14;14.50;30.50
70244;DHT22;57634;51.136;17.024;2023-04-06T10:52:15;14.60;30.80
70244;DHT22;57634;51.136;17.024;2023-04-06T10:55:19;14.70;30.30
70244;DHT22;57634;51.136;17.024;2023-04-06T10:58:25;14.60;30.60
70244;DHT22;57634;51.136;17.024;2023-04-06T11:01:26;14.50;30.50
70244;DHT22;57634;51.136;17.024;2023-04-06T11:04:28;14.40;30.80
70244;DHT22;57634;51.136;17.024;2023-04-06T11:07:56;14.30;30.70
70244;DHT22;57634;51.136;17.024;2023-04-06T11:11:04;14.00;30.90
70244;DHT22;57634;51.136;17.024;2023-04-06T11:14:09;13.80;31.80
70244;DHT22;57634;51.136;17.024;2023-04-06T11:17:11;13.90;32.10
70244;DHT22;57634;51.136;17.024;2023-04-06T11:20:12;14.10;32.40
70244;DHT22;57634;51.136;17.024;2023-04-06T11:23:22;14.30;32.20
70244;DHT22;57634;51.136;17.024;2023-04-06T11:26:26;14.60;32.20
70244;DHT22;57634;51.136;17.024;2023-04-06T11:29:29;14.70;31.40
70244;DHT22;57634;51.136;17.024;2023-04-06T11:32:40;14.40;31.10
70244;DHT22;57634;51.136;17.024;2023-04-06T11:36:08;14.20;31.50
70244;DHT22;57634;51.136;17.024;2023-04-06T11:39:11;14.10;31.40
70244;DHT22;57634;51.136;17.024;2023-04-06T11:42:13;13.80;31.40
70244;DHT22;57634;51.136;17.024;2023-04-06T11:45:19;13.70;31.80
70244;DHT22;57634;51.136;17.024;2023-04-06T11:48:20;13.70;32.30
70244;DHT22;57634;51.136;17.024;2023-04-06T11:51:25;13.60;32.30
70244;DHT22;57634;51.136;17.024;2023-04-06T11:54:34;13.50;32.50
70244;DHT22;57634;51.136;17.024;2023-04-06T11:57:36;13.40;32.60
70244;DHT22;57634;51.136;17.024;2023-04-06T12:00:37;13.30;32.60
70244;DHT22;57634;51.136;17.024;2023-04-06T12:03:38;13.20;32.70
70244;DHT22;57634;51.136;17.024;2023-04-06T12:06:40;13.10;32.90
70244;DHT22;57634;51.136;17.024;2023-04-06T12:10:07;13.20;32.80
70244;DHT22;57634;51.136;17.024;2023-04-06T12:13:09;13.10;32.90
70244;DHT22;57634;51.136;17.024;2023-04-06T12:16:10;13.10;33.20
70244;DHT22;57634;51.136;17.024;2023-04-06T12:19:11;13.20;33.30
70244;DHT22;57634;51.136;17.024;2023-04-06T12:22:14;13.20;33.20
70244;DHT22;57634;51.136;17.024;2023-04-06T12:25:15;13.10;33.10
70244;DHT22;57634;51.136;17.024;2023-04-06T12:28:17;12.90;33.30
70244;DHT22;57634;51.136;17.024;2023-04-06T12:31:21;12.80;33.30
70244;DHT22;57634;51.136;17.024;2023-04-06T12:34:22;12.90;33.50
70244;DHT22;57634;51.136;17.024;2023-04-06T12:37:23;12.80;33.20
70244;DHT22;57634;51.136;17.024;2023-04-06T12:40:25;12.80;33.40
70244;DHT22;57634;51.136;17.024;2023-04-06T12:43:26;12.90;33.50
70244;DHT22;57634;51.136;17.024;2023-04-06T12:46:27;13.00;33.40
70244;DHT22;57634;51.136;17.024;2023-04-06T12:49:58;13.00;33.50
70244;DHT22;57634;51.136;17.024;2023-04-06T12:53:00;12.80;33.10
70244;DHT22;57634;51.136;17.024;2023-04-06T12:56:11;12.70;33.50
70244;DHT22;57634;51.136;17.024;2023-04-06T12:59:14;12.70;33.80
70244;DHT22;57634;51.136;17.024;2023-04-06T13:02:15;12.60;33.70
70244;DHT22;57634;51.136;17.024;2023-04-06T13:05:17;12.40;33.50
70244;DHT22;57634;51.136;17.024;2023-04-06T13:08:19;12.20;33.90
70244;DHT22;57634;51.136;17.024;2023-04-06T13:11:21;12.10;34.30
70244;DHT22;57634;51.136;17.024;2023-04-06T13:14:25;12.10;34.50
70244;DHT22;57634;51.136;17.024;2023-04-06T13:17:27;12.20;34.60
70244;DHT22;57634;51.136;17.024;2023-04-06T13:20:29;12.30;34.40
70244;DHT22;57634;51.136;17.024;2023-04-06T13:23:56;12.10;34.00
70244;DHT22;57634;51.136;17.024;2023-04-06T13:26:58;11.90;34.30
70244;DHT22;57634;51.136;17.024;2023-04-06T13:29:59;11.90;34.70
70244;DHT22;57634;51.136;17.024;2023-04-06T13:33:02;11.90;34.70
70244;DHT22;57634;51.136;17.024;2023-04-06T13:36:04;11.90;34.50
70244;DHT22;57634;51.136;17.024;2023-04-06T13:39:07;11.80;34.40
70244;DHT22;57634;51.136;17.024;2023-04-06T13:42:08;11.80;34.60
70244;DHT22;57634;51.136;17.024;2023-04-06T13:45:11;11.90;34.80
70244;DHT22;57634;51.136;17.024;2023-04-06T13:48:12;11.90;35.00
70244;DHT22;57634;51.136;17.024;2023-04-06T13:51:13;12.00;35.00
70244;DHT22;57634;51.136;17.024;2023-04-06T13:54:16;12.10;34.90
70244;DHT22;57634;51.136;17.024;2023-04-06T13:57:17;12.10;34.70
70244;DHT22;57634;51.136;17.024;2023-04-06T14:00:18;11.90;34.60
70244;DHT22;57634;51.136;17.024;2023-04-06T14:03:49;11.80;34.70
70244;DHT22;57634;51.136;17.024;2023-04-06T14:06:50;11.70;34.70
70244;DHT22;57634;51.136;17.024;2023-04-06T14:09:51;11.40;34.80
70244;DHT22;57634;51.136;17.024;2023-04-06T14:12:52;11.20;35.30
70244;DHT22;57634;51.136;17.024;2023-04-06T14:15:54;11.10;35.80
70244;DHT22;57634;51.136;17.024;2023-04-06T14:18:56;11.00;35.70
70244;DHT22;57634;51.136;17.024;2023-04-06T14:21:59;10.90;36.20
70244;DHT22;57634;51.136;17.024;2023-04-06T14:25:01;10.90;36.50
70244;DHT22;57634;51.136;17.024;2023-04-06T14:28:03;10.90;36.50
70244;DHT22;57634;51.136;17.024;2023-04-06T14:31:09;10.90;36.70
70244;DHT22;57634;51.136;17.024;2023-04-06T14:34:17;11.00;36.80
70244;DHT22;57634;51.136;17.024;2023-04-06T14:37:45;11.10;36.70
70244;DHT22;57634;51.136;17.024;2023-04-06T14:40:48;11.20;36.70
70244;DHT22;57634;51.136;17.024;2023-04-06T14:43:49;11.30;36.50
70244;DHT22;57634;51.136;17.024;2023-04-06T14:46:53;11.30;36.20
70244;DHT22;57634;51.136;17.024;2023-04-06T14:49:54;11.30;36.20
70244;DHT22;57634;51.136;17.024;2023-04-06T14:52:55;11.30;36.30
70244;DHT22;57634;51.136;17.024;2023-04-06T14:55:57;11.30;36.10
70244;DHT22;57634;51.136;17.024;2023-04-06T14:58:59;11.10;35.90
70244;DHT22;57634;51.136;17.024;2023-04-06T15:02:03;11.10;36.30
70244;DHT22;57634;51.136;17.024;2023-04-06T15:05:05;11.10;36.40
70244;DHT22;57634;51.136;17.024;2023-04-06T15:08:06;11.20;36.50
70244;DHT22;57634;51.136;17.024;2023-04-06T15:11:11;11.30;36.60
70244;DHT22;57634;51.136;17.024;2023-04-06T15:14:40;11.40;36.40
70244;DHT22;57634;51.136;17.024;2023-04-06T15:17:41;11.60;36.30
70244;DHT22;57634;51.136;17.024;2023-04-06T15:20:43;11.50;36.00
70244;DHT22;57634;51.136;17.024;2023-04-06T15:23:44;11.30;36.10
70244;DHT22;57634;51.136;17.024;2023-04-06T15:26:46;11.30;36.40
70244;DHT22;57634;51.136;17.024;2023-04-06T15:29:48;11.20;36.60
70244;DHT22;57634;51.136;17.024;2023-04-06T15:33:00;11.30;36.90
70244;DHT22;57634;51.136;17.024;2023-04-06T15:36:04;11.30;36.90
70244;DHT22;57634;51.136;17.024;2023-04-06T15:39:07;11.20;36.90
70244;DHT22;57634;51.136;17.024;2023-04-06T15:42:09;11.30;37.00
70244;DHT22;57634;51.136;17.024;2023-04-06T15:45:11;11.30;36.90
70244;DHT22;57634;51.136;17.024;2023-04-06T15:48:40;11.30;36.80
70244;DHT22;57634;51.136;17.024;2023-04-06T15:51:42;11.30;36.80
70244;DHT22;57634;51.136;17.024;2023-04-06T15:54:43;11.30;36.80
70244;DHT22;57634;51.136;17.024;2023-04-06T15:57:44;11.30;36.80
70244;DHT22;57634;51.136;17.024;2023-04-06T16:00:46;11.30;36.80
70244;DHT22;57634;51.136;17.024;2023-04-06T16:03:47;11.20;36.70
70244;DHT22;57634;51.136;17.024;2023-04-06T16:06:49;11.20;36.80
70244;DHT22;57634;51.136;17.024;2023-04-06T16:09:50;11.10;36.70
70244;DHT22;57634;51.136;17.024;2023-04-06T16:12:52;11.00;36.80
70244;DHT22;57634;51.136;17.024;2023-04-06T16:15:53;10.90;37.00
70244;DHT22;57634;51.136;17.024;2023-04-06T16:18:54;10.90;37.10
70244;DHT22;57634;51.136;17.024;2023-04-06T16:21:56;10.80;37.10
70244;DHT22;57634;51.136;17.024;2023-04-06T16:24:57;10.70;37.20
70244;DHT22;57634;51.136;17.024;2023-04-06T16:27:59;10.70;37.40
70244;DHT22;57634;51.136;17.024;2023-04-06T16:31:27;10.70;37.40
70244;DHT22;57634;51.136;17.024;2023-04-06T16:34:32;10.70;37.60
70244;DHT22;57634;51.136;17.024;2023-04-06T16:37:33;10.60;37.60
70244;DHT22;57634;51.136;17.024;2023-04-06T16:40:35;10.50;37.80
70244;DHT22;57634;51.136;17.024;2023-04-06T16:43:37;10.50;37.90
70244;DHT22;57634;51.136;17.024;2023-04-06T16:46:38;10.50;38.00
70244;DHT22;57634;51.136;17.024;2023-04-06T16:49:42;10.50;38.10
70244;DHT22;57634;51.136;17.024;2023-04-06T16:52:43;10.40;38.10
70244;DHT22;57634;51.136;17.024;2023-04-06T16:55:45;10.40;38.30
70244;DHT22;57634;51.136;17.024;2023-04-06T16:58:46;10.30;38.50
70244;DHT22;57634;51.136;17.024;2023-04-06T17:01:47;10.30;38.70
70244;DHT22;57634;51.136;17.024;2023-04-06T17:04:49;10.20;38.80
70244;DHT22;57634;51.136;17.024;2023-04-06T17:07:50;10.10;38.80
70244;DHT22;57634;51.136;17.024;2023-04-06T17:11:19;10.10;39.10
70244;DHT22;57634;51.136;17.024;2023-04-06T17:14:20;10.10;39.40
70244;DHT22;57634;51.136;17.024;2023-04-06T17:17:21;10.00;39.50
70244;DHT22;57634;51.136;17.024;2023-04-06T17:20:23;10.00;39.60
70244;DHT22;57634;51.136;17.024;2023-04-06T17:23:25;9.90;39.70
70244;DHT22;57634;51.136;17.024;2023-04-06T17:26:26;9.90;39.80
70244;DHT22;57634;51.136;17.024;2023-04-06T17:29:27;9.80;40.00
70244;DHT22;57634;51.136;17.024;2023-04-06T17:32:29;9.80;40.10
70244;DHT22;57634;51.136;17.024;2023-04-06T17:35:30;9.70;40.20
70244;DHT22;57634;51.136;17.024;2023-04-06T17:38:31;9.70;40.40
70244;DHT22;57634;51.136;17.024;2023-04-06T17:41:33;9.70;40.60
70244;DHT22;57634;51.136;17.024;2023-04-06T17:44:34;9.60;40.70
70244;DHT22;57634;51.136;17.024;2023-04-06T17:47:36;9.60;40.80
70244;DHT22;57634;51.136;17.024;2023-04-06T17:50:37;9.60;40.90
70244;DHT22;57634;51.136;17.024;2023-04-06T17:53:39;9.50;41.10
70244;DHT22;57634;51.136;17.024;2023-04-06T17:57:06;9.40;41.30
70244;DHT22;57634;51.136;17.024;2023-04-06T18:00:10;9.40;41.50
70244;DHT22;57634;51.136;17.024;2023-04-06T18:03:11;9.30;41.70
70244;DHT22;57634;51.136;17.024;2023-04-06T18:06:14;9.40;41.90
70244;DHT22;57634;51.136;17.024;2023-04-06T18:09:16;9.30;41.90
70244;DHT22;57634;51.136;17.024;2023-04-06T18:12:17;9.30;42.00
70244;DHT22;57634;51.136;17.024;2023-04-06T18:15:19;9.20;42.10
70244;DHT22;57634;51.136;17.024;2023-04-06T18:18:21;9.10;42.20
70244;DHT22;57634;51.136;17.024;2023-04-06T18:21:23;9.10;42.30
70244;DHT22;57634;51.136;17.024;2023-04-06T18:24:24;9.10;42.40
70244;DHT22;57634;51.136;17.024;2023-04-06T18:27:26;9.00;42.50
70244;DHT22;57634;51.136;17.024;2023-04-06T18:30:27;9.10;42.60
70244;DHT22;57634;51.136;17.024;2023-04-06T18:33:28;9.00;42.60
70244;DHT22;57634;51.136;17.024;2023-04-06T18:36:59;9.00;42.70
70244;DHT22;57634;51.136;17.024;2023-04-06T18:40:01;9.00;42.80
70244;DHT22;57634;51.136;17.024;2023-04-06T18:43:05;9.00;42.90
70244;DHT22;57634;51.136;17.024;2023-04-06T18:46:13;8.90;43.00
70244;DHT22;57634;51.136;17.024;2023-04-06T18:49:15;8.90;43.10
70244;DHT22;57634;51.136;17.024;2023-04-06T18:52:16;8.90;43.20
70244;DHT22;57634;51.136;17.024;2023-04-06T18:55:18;8.90;43.20
70244;DHT22;57634;51.136;17.024;2023-04-06T18:58:20;8.90;43.40
70244;DHT22;57634;51.136;17.024;2023-04-06T19:01:28;8.90;43.40
70244;DHT22;57634;51.136;17.024;2023-04-06T19:04:30;8.80;43.50
70244;DHT22;57634;51.136;17.024;2023-04-06T19:07:59;8.80;43.60
70244;DHT22;57634;51.136;17.024;2023-04-06T19:11:07;8.80;43.70
70244;DHT22;57634;51.136;17.024;2023-04-06T19:14:08;8.70;43.80
70244;DHT22;57634;51.136;17.024;2023-04-06T19:17:10;8.70;44.00
70244;DHT22;57634;51.136;17.024;2023-04-06T19:20:11;8.70;44.00
70244;DHT22;57634;51.136;17.024;2023-04-06T19:23:12;8.70;44.20
70244;DHT22;57634;51.136;17.024;2023-04-06T19:26:15;8.70;44.20